sensor_id;sensor_type;location;lat;lon;timestamp;P1;durP1;ratioP1;P2;durP2;ratioP2
15061;SDS011;7630;50.306;8.566;2023-04-06T00:00:44;16.77;;;15.13;;
15061;SDS011;7630;50.306;8.566;2023-04-06T00:04:45;16.73;;;14.97;;
15061;SDS011;7630;50.306;8.566;2023-04-06T00:08:46;16.00;;;14.23;;
15061;SDS011;7630;50.306;8.566;2023-04-06T00:12:47;12.43;;;11.23;;
15061;SDS011;7630;50.306;8.566;2023-04-06T00:16:48;13.83;;;12.37;;
15061;SDS011;7630;50.306;8.566;2023-04-06T00:20:49;15.63;;;11.80;;
15061;SDS011;7630;50.306;8.566;2023-04-06T00:24:51;14.23;;;12.83;;
15061;SDS011;7630;50.306;8.566;2023-04-06T00:28:52;15.40;;;13.30;;
15061;SDS011;7630;50.306;8.566;2023-04-06T00:32:53;13.37;;;12.17;;
15061;SDS011;7630;50.306;8.566;2023-04-06T00:36:54;16.00;;;12.10;;
15061;SDS011;7630;50.306;8.566;2023-04-06T00:40:56;17.97;;;12.73;;
15061;SDS011;7630;50.306;8.566;2023-04-06T00:45:00;15.67;;;14.03;;
15061;SDS011;7630;50.306;8.566;2023-04-06T00:49:02;14.87;;;13.37;;
15061;SDS011;7630;50.306;8.566;2023-04-06T00:53:03;13.73;;;12.43;;
15061;SDS011;7630;50.306;8.566;2023-04-06T00:57:04;14.53;;;13.00;;
15061;SDS011;7630;50.306;8.566;2023-04-06T01:01:05;14.50;;;13.10;;
15061;SDS011;7630;50.306;8.566;2023-04-06T01:05:07;16.13;;;13.97;;
15061;SDS011;7630;50.306;8.566;2023-04-06T01:09:08;16.07;;;13.63;;
15061;SDS011;7630;50.306;8.566;2023-04-06T01:13:10;16.00;;;14.40;;
15061;SDS011;7630;50.306;8.566;2023-04-06T01:17:11;14.87;;;13.37;;
15061;SDS011;7630;50.306;8.566;2023-04-06T01:21:12;15.47;;;13.87;;
15061;SDS011;7630;50.306;8.566;2023-04-06T01:25:15;16.10;;;14.50;;
15061;SDS011;7630;50.306;8.566;2023-04-06T01:29:17;15.60;;;14.03;;
15061;SDS011;7630;50.306;8.566;2023-04-06T01:33:18;18.40;;;15.47;;
15061;SDS011;7630;50.306;8.566;2023-04-06T01:37:19;14.03;;;12.73;;
15061;SDS011;7630;50.306;8.566;2023-04-06T01:41:20;15.77;;;14.07;;
15061;SDS011;7630;50.306;8.566;2023-04-06T01:45:21;15.83;;;13.67;;
15061;SDS011;7630;50.306;8.566;2023-04-06T01:49:23;16.23;;;14.63;;
15061;SDS011;7630;50.306;8.566;2023-04-06T01:53:24;14.53;;;13.13;;
15061;SDS011;7630;50.306;8.566;2023-04-06T01:57:25;13.80;;;12.60;;
15061;SDS011;7630;50.306;8.566;2023-04-06T02:01:27;15.33;;;13.80;;
15061;SDS011;7630;50.306;8.566;2023-04-06T02:05:28;14.73;;;13.40;;
15061;SDS011;7630;50.306;8.566;2023-04-06T02:09:30;15.13;;;13.60;;
15061;SDS011;7630;50.306;8.566;2023-04-06T02:13:32;13.63;;;12.23;;
15061;SDS011;7630;50.306;8.566;2023-04-06T02:17:34;13.13;;;11.20;;
15061;SDS011;7630;50.306;8.566;2023-04-06T02:21:35;13.63;;;12.33;;
15061;SDS011;7630;50.306;8.566;2023-04-06T02:25:36;16.33;;;13.90;;
15061;SDS011;7630;50.306;8.566;2023-04-06T02:29:37;15.30;;;13.83;;
15061;SDS011;7630;50.306;8.566;2023-04-06T02:33:39;15.10;;;13.60;;
15061;SDS011;7630;50.306;8.566;2023-04-06T02:37:40;14.93;;;13.33;;
15061;SDS011;7630;50.306;8.566;2023-04-06T02:41:41;17.27;;;15.50;;
15061;SDS011;7630;50.306;8.566;2023-04-06T02:45:42;16.07;;;14.60;;
15061;SDS011;7630;50.306;8.566;2023-04-06T02:49:43;15.53;;;14.00;;
15061;SDS011;7630;50.306;8.566;2023-04-06T02:53:44;15.47;;;13.93;;
15061;SDS011;7630;50.306;8.566;2023-04-06T02:57:45;15.57;;;13.97;;
15061;SDS011;7630;50.306;8.566;2023-04-06T03:01:46;14.87;;;13.43;;
15061;SDS011;7630;50.306;8.566;2023-04-06T03:05:47;19.00;;;14.90;;
15061;SDS011;7630;50.306;8.566;2023-04-06T03:09:49;14.60;;;13.10;;
15061;SDS011;7630;50.306;8.566;2023-04-06T03:13:50;15.77;;;12.73;;
15061;SDS011;7630;50.306;8.566;2023-04-06T03:17:51;14.87;;;12.63;;
15061;SDS011;7630;50.306;8.566;2023-04-06T03:21:53;13.43;;;12.03;;
15061;SDS011;7630;50.306;8.566;2023-04-06T03:25:54;13.47;;;12.23;;
15061;SDS011;7630;50.306;8.566;2023-04-06T03:29:55;14.57;;;12.80;;
15061;SDS011;7630;50.306;8.566;2023-04-06T03:33:56;16.63;;;13.67;;
15061;SDS011;7630;50.306;8.566;2023-04-06T03:37:58;13.77;;;12.33;;
15061;SDS011;7630;50.306;8.566;2023-04-06T03:41:59;14.63;;;13.13;;
15061;SDS011;7630;50.306;8.566;2023-04-06T03:46:00;14.47;;;13.03;;
15061;SDS011;7630;50.306;8.566;2023-04-06T03:50:01;15.63;;;14.23;;
15061;SDS011;7630;50.306;8.566;2023-04-06T03:54:03;15.90;;;14.10;;
15061;SDS011;7630;50.306;8.566;2023-04-06T03:58:05;15.10;;;13.63;;
15061;SDS011;7630;50.306;8.566;2023-04-06T04:02:06;15.37;;;13.77;;
15061;SDS011;7630;50.306;8.566;2023-04-06T04:06:07;14.67;;;12.87;;
15061;SDS011;7630;50.306;8.566;2023-04-06T04:10:09;14.57;;;13.17;;
15061;SDS011;7630;50.306;8.566;2023-04-06T04:14:10;17.27;;;12.93;;
15061;SDS011;7630;50.306;8.566;2023-04-06T04:18:11;13.20;;;11.87;;
15061;SDS011;7630;50.306;8.566;2023-04-06T04:22:12;13.10;;;11.80;;
15061;SDS011;7630;50.306;8.566;2023-04-06T04:26:14;15.07;;;13.30;;
15061;SDS011;7630;50.306;8.566;2023-04-06T04:30:15;16.20;;;14.53;;
15061;SDS011;7630;50.306;8.566;2023-04-06T04:34:16;18.40;;;14.37;;
15061;SDS011;7630;50.306;8.566;2023-04-06T04:38:20;15.43;;;13.67;;
15061;SDS011;7630;50.306;8.566;2023-04-06T04:42:21;18.17;;;13.97;;
15061;SDS011;7630;50.306;8.566;2023-04-06T04:46:23;14.30;;;12.80;;
15061;SDS011;7630;50.306;8.566;2023-04-06T04:50:24;12.30;;;11.17;;
15061;SDS011;7630;50.306;8.566;2023-04-06T04:54:26;12.33;;;11.03;;
15061;SDS011;7630;50.306;8.566;2023-04-06T04:58:27;13.70;;;11.97;;
15061;SDS011;7630;50.306;8.566;2023-04-06T05:02:28;10.17;;;9.20;;
15061;SDS011;7630;50.306;8.566;2023-04-06T05:06:30;14.60;;;10.30;;
15061;SDS011;7630;50.306;8.566;2023-04-06T05:10:31;12.33;;;11.03;;
15061;SDS011;7630;50.306;8.566;2023-04-06T05:14:32;14.20;;;11.13;;
15061;SDS011;7630;50.306;8.566;2023-04-06T05:18:33;12.03;;;10.77;;
15061;SDS011;7630;50.306;8.566;2023-04-06T05:22:35;12.10;;;11.10;;
15061;SDS011;7630;50.306;8.566;2023-04-06T05:26:36;13.10;;;10.77;;
15061;SDS011;7630;50.306;8.566;2023-04-06T05:30:37;12.90;;;11.57;;
15061;SDS011;7630;50.306;8.566;2023-04-06T05:34:38;12.87;;;11.60;;
15061;SDS011;7630;50.306;8.566;2023-04-06T05:38:40;12.10;;;10.73;;
15061;SDS011;7630;50.306;8.566;2023-04-06T05:42:41;13.07;;;10.67;;
15061;SDS011;7630;50.306;8.566;2023-04-06T05:46:43;11.23;;;9.67;;
15061;SDS011;7630;50.306;8.566;2023-04-06T05:50:49;11.17;;;10.10;;
15061;SDS011;7630;50.306;8.566;2023-04-06T05:54:49;11.47;;;10.07;;
15061;SDS011;7630;50.306;8.566;2023-04-06T05:58:50;13.13;;;11.00;;
15061;SDS011;7630;50.306;8.566;2023-04-06T06:02:52;12.80;;;11.50;;
15061;SDS011;7630;50.306;8.566;2023-04-06T06:06:53;13.27;;;11.63;;
15061;SDS011;7630;50.306;8.566;2023-04-06T06:10:54;12.00;;;10.80;;
15061;SDS011;7630;50.306;8.566;2023-04-06T06:14:56;13.47;;;12.33;;
15061;SDS011;7630;50.306;8.566;2023-04-06T06:18:58;12.27;;;11.17;;
15061;SDS011;7630;50.306;8.566;2023-04-06T06:22:59;13.70;;;12.33;;
15061;SDS011;7630;50.306;8.566;2023-04-06T06:27:00;19.53;;;12.63;;
15061;SDS011;7630;50.306;8.566;2023-04-06T06:31:01;16.33;;;11.57;;
15061;SDS011;7630;50.306;8.566;2023-04-06T06:35:03;12.47;;;11.23;;
15061;SDS011;7630;50.306;8.566;2023-04-06T06:39:05;14.23;;;12.80;;
15061;SDS011;7630;50.306;8.566;2023-04-06T06:43:06;16.67;;;12.80;;
15061;SDS011;7630;50.306;8.566;2023-04-06T06:47:07;15.23;;;13.87;;
15061;SDS011;7630;50.306;8.566;2023-04-06T06:51:08;15.73;;;14.30;;
15061;SDS011;7630;50.306;8.566;2023-04-06T06:55:10;16.20;;;13.60;;
15061;SDS011;7630;50.306;8.566;2023-04-06T06:59:12;14.57;;;13.10;;
15061;SDS011;7630;50.306;8.566;2023-04-06T07:03:13;14.80;;;13.37;;
15061;SDS011;7630;50.306;8.566;2023-04-06T07:07:14;18.07;;;15.57;;
15061;SDS011;7630;50.306;8.566;2023-04-06T07:11:15;13.57;;;12.17;;
15061;SDS011;7630;50.306;8.566;2023-04-06T07:15:17;15.47;;;13.83;;
15061;SDS011;7630;50.306;8.566;2023-04-06T07:19:18;15.40;;;12.53;;
15061;SDS011;7630;50.306;8.566;2023-04-06T07:23:20;15.40;;;13.50;;
15061;SDS011;7630;50.306;8.566;2023-04-06T07:27:23;14.40;;;12.97;;
15061;SDS011;7630;50.306;8.566;2023-04-06T07:31:24;15.97;;;14.37;;
15061;SDS011;7630;50.306;8.566;2023-04-06T07:35:26;14.93;;;13.60;;
15061;SDS011;7630;50.306;8.566;2023-04-06T07:39:28;14.17;;;12.87;;
15061;SDS011;7630;50.306;8.566;2023-04-06T07:43:29;14.77;;;13.43;;
15061;SDS011;7630;50.306;8.566;2023-04-06T07:47:31;15.37;;;13.93;;
15061;SDS011;7630;50.306;8.566;2023-04-06T07:51:32;15.03;;;13.73;;
15061;SDS011;7630;50.306;8.566;2023-04-06T07:55:39;13.77;;;12.47;;
15061;SDS011;7630;50.306;8.566;2023-04-06T07:59:40;15.17;;;13.77;;
15061;SDS011;7630;50.306;8.566;2023-04-06T08:03:42;15.03;;;13.63;;
15061;SDS011;7630;50.306;8.566;2023-04-06T08:07:43;16.03;;;14.43;;
15061;SDS011;7630;50.306;8.566;2023-04-06T08:11:44;15.93;;;14.47;;
15061;SDS011;7630;50.306;8.566;2023-04-06T08:15:46;17.37;;;14.37;;
15061;SDS011;7630;50.306;8.566;2023-04-06T08:19:48;17.53;;;15.83;;
15061;SDS011;7630;50.306;8.566;2023-04-06T08:23:49;16.47;;;14.87;;
15061;SDS011;7630;50.306;8.566;2023-04-06T08:27:50;17.80;;;16.13;;
15061;SDS011;7630;50.306;8.566;2023-04-06T08:31:52;16.47;;;14.83;;
15061;SDS011;7630;50.306;8.566;2023-04-06T08:35:53;16.00;;;14.30;;
15061;SDS011;7630;50.306;8.566;2023-04-06T08:39:54;17.07;;;15.47;;
15061;SDS011;7630;50.306;8.566;2023-04-06T08:43:59;18.70;;;16.83;;
15061;SDS011;7630;50.306;8.566;2023-04-06T08:48:01;17.27;;;15.70;;
15061;SDS011;7630;50.306;8.566;2023-04-06T08:52:05;16.67;;;15.03;;
15061;SDS011;7630;50.306;8.566;2023-04-06T08:56:08;17.17;;;15.47;;
15061;SDS011;7630;50.306;8.566;2023-04-06T09:00:11;16.30;;;14.57;;
15061;SDS011;7630;50.306;8.566;2023-04-06T09:04:13;17.77;;;16.17;;
15061;SDS011;7630;50.306;8.566;2023-04-06T09:08:16;16.50;;;14.97;;
15061;SDS011;7630;50.306;8.566;2023-04-06T09:12:27;16.73;;;14.93;;
15061;SDS011;7630;50.306;8.566;2023-04-06T09:16:38;16.10;;;14.60;;
15061;SDS011;7630;50.306;8.566;2023-04-06T09:20:34;15.50;;;14.10;;
15061;SDS011;7630;50.306;8.566;2023-04-06T09:24:43;16.30;;;14.67;;
15061;SDS011;7630;50.306;8.566;2023-04-06T09:28:50;16.47;;;14.60;;
15061;SDS011;7630;50.306;8.566;2023-04-06T09:32:53;18.30;;;16.50;;
15061;SDS011;7630;50.306;8.566;2023-04-06T09:36:56;19.47;;;16.47;;
15061;SDS011;7630;50.306;8.566;2023-04-06T09:40:59;16.73;;;15.07;;
15061;SDS011;7630;50.306;8.566;2023-04-06T09:45:02;16.90;;;15.30;;
15061;SDS011;7630;50.306;8.566;2023-04-06T09:49:04;15.57;;;13.93;;
15061;SDS011;7630;50.306;8.566;2023-04-06T09:53:06;16.70;;;14.93;;
15061;SDS011;7630;50.306;8.566;2023-04-06T10:01:28;15.43;;;13.93;;
15061;SDS011;7630;50.306;8.566;2023-04-06T10:09:36;15.33;;;13.80;;
15061;SDS011;7630;50.306;8.566;2023-04-06T10:13:38;17.37;;;15.60;;
15061;SDS011;7630;50.306;8.566;2023-04-06T10:17:39;17.30;;;13.70;;
15061;SDS011;7630;50.306;8.566;2023-04-06T10:21:41;18.67;;;15.07;;
15061;SDS011;7630;50.306;8.566;2023-04-06T10:25:53;15.73;;;14.10;;
15061;SDS011;7630;50.306;8.566;2023-04-06T10:30:00;17.03;;;15.00;;
15061;SDS011;7630;50.306;8.566;2023-04-06T10:34:06;15.33;;;13.80;;
15061;SDS011;7630;50.306;8.566;2023-04-06T10:38:08;13.10;;;12.00;;
15061;SDS011;7630;50.306;8.566;2023-04-06T10:42:09;15.60;;;13.93;;
15061;SDS011;7630;50.306;8.566;2023-04-06T10:46:11;14.80;;;13.23;;
15061;SDS011;7630;50.306;8.566;2023-04-06T10:50:17;17.13;;;13.87;;
15061;SDS011;7630;50.306;8.566;2023-04-06T10:54:16;16.50;;;13.40;;
15061;SDS011;7630;50.306;8.566;2023-04-06T10:58:19;14.87;;;13.40;;
15061;SDS011;7630;50.306;8.566;2023-04-06T11:02:21;15.27;;;13.80;;
15061;SDS011;7630;50.306;8.566;2023-04-06T11:06:23;14.60;;;13.10;;
15061;SDS011;7630;50.306;8.566;2023-04-06T11:10:27;13.53;;;12.23;;
15061;SDS011;7630;50.306;8.566;2023-04-06T11:14:30;12.43;;;11.17;;
15061;SDS011;7630;50.306;8.566;2023-04-06T11:18:31;13.70;;;12.37;;
15061;SDS011;7630;50.306;8.566;2023-04-06T11:22:33;11.10;;;9.90;;
15061;SDS011;7630;50.306;8.566;2023-04-06T11:26:37;13.50;;;12.10;;
15061;SDS011;7630;50.306;8.566;2023-04-06T11:30:40;12.60;;;11.30;;
15061;SDS011;7630;50.306;8.566;2023-04-06T11:34:42;11.77;;;10.67;;
15061;SDS011;7630;50.306;8.566;2023-04-06T11:38:43;12.30;;;11.10;;
15061;SDS011;7630;50.306;8.566;2023-04-06T11:42:44;12.10;;;10.07;;
15061;SDS011;7630;50.306;8.566;2023-04-06T11:46:56;12.20;;;10.93;;
15061;SDS011;7630;50.306;8.566;2023-04-06T11:51:01;12.27;;;11.07;;
15061;SDS011;7630;50.306;8.566;2023-04-06T11:55:12;11.43;;;10.33;;
15061;SDS011;7630;50.306;8.566;2023-04-06T11:59:16;12.93;;;11.63;;
15061;SDS011;7630;50.306;8.566;2023-04-06T12:03:17;11.47;;;10.37;;
15061;SDS011;7630;50.306;8.566;2023-04-06T12:07:18;13.07;;;11.87;;
15061;SDS011;7630;50.306;8.566;2023-04-06T12:11:20;12.87;;;11.40;;
15061;SDS011;7630;50.306;8.566;2023-04-06T12:15:22;13.53;;;12.17;;
15061;SDS011;7630;50.306;8.566;2023-04-06T12:19:23;15.77;;;14.17;;
15061;SDS011;7630;50.306;8.566;2023-04-06T12:23:26;12.23;;;11.10;;
15061;SDS011;7630;50.306;8.566;2023-04-06T12:27:27;14.07;;;12.70;;
15061;SDS011;7630;50.306;8.566;2023-04-06T12:31:28;17.60;;;15.40;;
15061;SDS011;7630;50.306;8.566;2023-04-06T12:35:33;14.03;;;12.63;;
15061;SDS011;7630;50.306;8.566;2023-04-06T12:39:37;12.40;;;11.10;;
15061;SDS011;7630;50.306;8.566;2023-04-06T12:43:41;11.70;;;10.47;;
15061;SDS011;7630;50.306;8.566;2023-04-06T12:47:42;13.00;;;11.70;;
15061;SDS011;7630;50.306;8.566;2023-04-06T12:51:44;13.37;;;11.17;;
15061;SDS011;7630;50.306;8.566;2023-04-06T12:55:46;12.97;;;11.87;;
15061;SDS011;7630;50.306;8.566;2023-04-06T12:59:47;14.27;;;12.87;;
15061;SDS011;7630;50.306;8.566;2023-04-06T13:03:48;16.00;;;14.40;;
15061;SDS011;7630;50.306;8.566;2023-04-06T13:07:50;15.47;;;13.57;;
15061;SDS011;7630;50.306;8.566;2023-04-06T13:11:51;13.80;;;12.47;;
15061;SDS011;7630;50.306;8.566;2023-04-06T13:15:53;16.57;;;14.07;;
15061;SDS011;7630;50.306;8.566;2023-04-06T13:19:56;23.87;;;21.47;;
15061;SDS011;7630;50.306;8.566;2023-04-06T13:23:57;14.00;;;12.17;;
15061;SDS011;7630;50.306;8.566;2023-04-06T13:27:59;13.67;;;12.03;;
15061;SDS011;7630;50.306;8.566;2023-04-06T13:32:00;14.27;;;12.97;;
15061;SDS011;7630;50.306;8.566;2023-04-06T13:36:02;14.97;;;12.33;;
15061;SDS011;7630;50.306;8.566;2023-04-06T13:40:04;15.27;;;13.17;;
15061;SDS011;7630;50.306;8.566;2023-04-06T13:44:06;13.37;;;12.13;;
15061;SDS011;7630;50.306;8.566;2023-04-06T13:48:08;13.00;;;11.67;;
15061;SDS011;7630;50.306;8.566;2023-04-06T13:52:09;14.57;;;12.30;;
15061;SDS011;7630;50.306;8.566;2023-04-06T13:56:11;14.03;;;12.70;;
15061;SDS011;7630;50.306;8.566;2023-04-06T14:00:12;12.87;;;11.67;;
15061;SDS011;7630;50.306;8.566;2023-04-06T14:04:15;15.67;;;14.07;;
15061;SDS011;7630;50.306;8.566;2023-04-06T14:08:16;16.30;;;14.67;;
15061;SDS011;7630;50.306;8.566;2023-04-06T14:12:17;13.60;;;12.40;;
15061;SDS011;7630;50.306;8.566;2023-04-06T14:16:18;16.47;;;14.20;;
15061;SDS011;7630;50.306;8.566;2023-04-06T14:20:21;14.47;;;12.97;;
15061;SDS011;7630;50.306;8.566;2023-04-06T14:24:22;14.20;;;12.50;;
15061;SDS011;7630;50.306;8.566;2023-04-06T14:28:23;12.47;;;11.27;;
15061;SDS011;7630;50.306;8.566;2023-04-06T14:32:24;12.80;;;11.27;;
15061;SDS011;7630;50.306;8.566;2023-04-06T14:36:26;13.37;;;12.13;;
15061;SDS011;7630;50.306;8.566;2023-04-06T14:40:29;13.00;;;11.80;;
15061;SDS011;7630;50.306;8.566;2023-04-06T14:44:32;13.73;;;12.13;;
15061;SDS011;7630;50.306;8.566;2023-04-06T14:48:34;13.13;;;11.93;;
15061;SDS011;7630;50.306;8.566;2023-04-06T14:52:36;15.57;;;14.07;;
15061;SDS011;7630;50.306;8.566;2023-04-06T14:56:37;14.80;;;13.30;;
15061;SDS011;7630;50.306;8.566;2023-04-06T15:00:39;18.03;;;13.10;;
15061;SDS011;7630;50.306;8.566;2023-04-06T15:04:40;12.67;;;11.57;;
15061;SDS011;7630;50.306;8.566;2023-04-06T15:08:42;17.30;;;12.70;;
15061;SDS011;7630;50.306;8.566;2023-04-06T15:12:43;13.10;;;11.80;;
15061;SDS011;7630;50.306;8.566;2023-04-06T15:16:44;16.50;;;12.27;;
15061;SDS011;7630;50.306;8.566;2023-04-06T15:20:45;14.17;;;12.67;;
15061;SDS011;7630;50.306;8.566;2023-04-06T15:24:47;14.53;;;11.60;;
15061;SDS011;7630;50.306;8.566;2023-04-06T15:28:48;13.27;;;12.03;;
15061;SDS011;7630;50.306;8.566;2023-04-06T15:32:55;11.60;;;10.40;;
15061;SDS011;7630;50.306;8.566;2023-04-06T15:37:01;11.80;;;10.63;;
15061;SDS011;7630;50.306;8.566;2023-04-06T15:41:02;10.37;;;9.37;;
15061;SDS011;7630;50.306;8.566;2023-04-06T15:45:05;13.63;;;12.23;;
15061;SDS011;7630;50.306;8.566;2023-04-06T15:49:07;11.87;;;10.70;;
15061;SDS011;7630;50.306;8.566;2023-04-06T15:53:08;12.20;;;11.10;;
15061;SDS011;7630;50.306;8.566;2023-04-06T15:57:09;10.30;;;9.20;;
15061;SDS011;7630;50.306;8.566;2023-04-06T16:01:11;10.17;;;9.20;;
15061;SDS011;7630;50.306;8.566;2023-04-06T16:05:13;12.33;;;10.10;;
15061;SDS011;7630;50.306;8.566;2023-04-06T16:09:15;11.07;;;8.97;;
15061;SDS011;7630;50.306;8.566;2023-04-06T16:13:16;12.80;;;11.07;;
15061;SDS011;7630;50.306;8.566;2023-04-06T16:17:17;9.63;;;8.73;;
15061;SDS011;7630;50.306;8.566;2023-04-06T16:21:18;12.33;;;10.17;;
15061;SDS011;7630;50.306;8.566;2023-04-06T16:25:19;10.37;;;9.10;;
15061;SDS011;7630;50.306;8.566;2023-04-06T16:29:21;10.17;;;9.10;;
15061;SDS011;7630;50.306;8.566;2023-04-06T16:33:22;10.30;;;9.27;;
15061;SDS011;7630;50.306;8.566;2023-04-06T16:37:25;11.23;;;10.13;;
15061;SDS011;7630;50.306;8.566;2023-04-06T16:41:27;11.47;;;10.10;;
15061;SDS011;7630;50.306;8.566;2023-04-06T16:45:28;11.67;;;10.43;;
15061;SDS011;7630;50.306;8.566;2023-04-06T16:49:29;11.40;;;9.90;;
15061;SDS011;7630;50.306;8.566;2023-04-06T16:53:30;17.03;;;14.27;;
15061;SDS011;7630;50.306;8.566;2023-04-06T16:57:31;8.37;;;7.57;;
15061;SDS011;7630;50.306;8.566;2023-04-06T17:01:34;9.13;;;8.23;;
15061;SDS011;7630;50.306;8.566;2023-04-06T17:05:35;8.60;;;7.63;;
15061;SDS011;7630;50.306;8.566;2023-04-06T17:09:36;10.30;;;9.40;;
15061;SDS011;7630;50.306;8.566;2023-04-06T17:13:37;8.43;;;7.73;;
15061;SDS011;7630;50.306;8.566;2023-04-06T17:17:39;9.53;;;8.73;;
15061;SDS011;7630;50.306;8.566;2023-04-06T17:21:41;9.63;;;8.73;;
15061;SDS011;7630;50.306;8.566;2023-04-06T17:25:42;9.23;;;8.30;;
15061;SDS011;7630;50.306;8.566;2023-04-06T17:29:43;9.60;;;8.57;;
15061;SDS011;7630;50.306;8.566;2023-04-06T17:33:44;9.70;;;8.40;;
15061;SDS011;7630;50.306;8.566;2023-04-06T17:37:47;10.20;;;8.67;;
15061;SDS011;7630;50.306;8.566;2023-04-06T17:41:48;8.57;;;7.67;;
15061;SDS011;7630;50.306;8.566;2023-04-06T17:45:50;7.83;;;7.10;;
15061;SDS011;7630;50.306;8.566;2023-04-06T17:49:51;7.50;;;6.73;;
15061;SDS011;7630;50.306;8.566;2023-04-06T17:53:52;7.93;;;7.33;;
15061;SDS011;7630;50.306;8.566;2023-04-06T17:57:53;8.03;;;7.33;;
15061;SDS011;7630;50.306;8.566;2023-04-06T18:01:55;8.80;;;8.00;;
15061;SDS011;7630;50.306;8.566;2023-04-06T18:05:56;8.57;;;7.77;;
15061;SDS011;7630;50.306;8.566;2023-04-06T18:10:00;7.73;;;6.93;;
15061;SDS011;7630;50.306;8.566;2023-04-06T18:14:05;7.80;;;7.13;;
15061;SDS011;7630;50.306;8.566;2023-04-06T18:18:11;7.65;;;6.92;;
15061;SDS011;7630;50.306;8.566;2023-04-06T18:22:12;8.27;;;7.47;;
15061;SDS011;7630;50.306;8.566;2023-04-06T18:26:14;8.10;;;7.30;;
15061;SDS011;7630;50.306;8.566;2023-04-06T18:30:17;8.63;;;7.93;;
15061;SDS011;7630;50.306;8.566;2023-04-06T18:34:19;9.33;;;8.50;;
15061;SDS011;7630;50.306;8.566;2023-04-06T18:38:21;9.57;;;8.67;;
15061;SDS011;7630;50.306;8.566;2023-04-06T18:42:23;8.73;;;8.00;;
15061;SDS011;7630;50.306;8.566;2023-04-06T18:46:24;9.83;;;8.87;;
15061;SDS011;7630;50.306;8.566;2023-04-06T18:50:25;8.33;;;7.63;;
15061;SDS011;7630;50.306;8.566;2023-04-06T18:54:27;8.83;;;8.03;;
15061;SDS011;7630;50.306;8.566;2023-04-06T18:58:28;9.70;;;8.87;;
15061;SDS011;7630;50.306;8.566;2023-04-06T19:02:29;11.03;;;9.63;;
15061;SDS011;7630;50.306;8.566;2023-04-06T19:06:31;9.40;;;8.50;;
15061;SDS011;7630;50.306;8.566;2023-04-06T19:10:33;9.87;;;9.07;;
15061;SDS011;7630;50.306;8.566;2023-04-06T19:14:35;10.90;;;9.80;;
15061;SDS011;7630;50.306;8.566;2023-04-06T19:18:37;10.57;;;9.53;;
15061;SDS011;7630;50.306;8.566;2023-04-06T19:22:40;11.50;;;10.47;;
15061;SDS011;7630;50.306;8.566;2023-04-06T19:26:42;12.63;;;11.37;;
15061;SDS011;7630;50.306;8.566;2023-04-06T19:30:43;11.27;;;10.17;;
15061;SDS011;7630;50.306;8.566;2023-04-06T19:34:45;10.73;;;9.77;;
15061;SDS011;7630;50.306;8.566;2023-04-06T19:38:46;11.07;;;9.87;;
15061;SDS011;7630;50.306;8.566;2023-04-06T19:42:47;12.03;;;10.83;;
15061;SDS011;7630;50.306;8.566;2023-04-06T19:46:48;12.30;;;11.30;;
15061;SDS011;7630;50.306;8.566;2023-04-06T19:50:54;12.93;;;11.60;;
15061;SDS011;7630;50.306;8.566;2023-04-06T19:54:54;12.90;;;11.57;;
15061;SDS011;7630;50.306;8.566;2023-04-06T19:58:55;13.17;;;11.93;;
15061;SDS011;7630;50.306;8.566;2023-04-06T20:02:57;14.93;;;13.47;;
15061;SDS011;7630;50.306;8.566;2023-04-06T20:06:59;12.73;;;11.53;;
15061;SDS011;7630;50.306;8.566;2023-04-06T20:11:02;14.73;;;12.13;;
15061;SDS011;7630;50.306;8.566;2023-04-06T20:15:04;15.20;;;13.27;;
15061;SDS011;7630;50.306;8.566;2023-04-06T20:19:06;14.70;;;13.23;;
15061;SDS011;7630;50.306;8.566;2023-04-06T20:23:07;13.37;;;11.97;;
15061;SDS011;7630;50.306;8.566;2023-04-06T20:27:08;14.57;;;13.17;;
15061;SDS011;7630;50.306;8.566;2023-04-06T20:31:09;14.80;;;13.53;;
15061;SDS011;7630;50.306;8.566;2023-04-06T20:35:11;13.67;;;12.47;;
15061;SDS011;7630;50.306;8.566;2023-04-06T20:39:13;13.03;;;11.93;;
15061;SDS011;7630;50.306;8.566;2023-04-06T20:43:14;14.13;;;12.73;;
15061;SDS011;7630;50.306;8.566;2023-04-06T20:47:17;14.23;;;12.93;;
15061;SDS011;7630;50.306;8.566;2023-04-06T20:51:18;12.40;;;11.40;;
15061;SDS011;7630;50.306;8.566;2023-04-06T20:55:20;17.03;;;13.47;;
15061;SDS011;7630;50.306;8.566;2023-04-06T20:59:22;14.73;;;13.30;;
15061;SDS011;7630;50.306;8.566;2023-04-06T21:03:23;15.60;;;14.00;;
15061;SDS011;7630;50.306;8.566;2023-04-06T21:07:24;16.23;;;14.63;;
15061;SDS011;7630;50.306;8.566;2023-04-06T21:11:26;18.70;;;15.83;;
15061;SDS011;7630;50.306;8.566;2023-04-06T21:15:27;16.50;;;14.87;;
15061;SDS011;7630;50.306;8.566;2023-04-06T21:19:28;18.87;;;16.87;;
15061;SDS011;7630;50.306;8.566;2023-04-06T21:23:30;19.00;;;17.20;;
15061;SDS011;7630;50.306;8.566;2023-04-06T21:27:31;18.97;;;17.17;;
15061;SDS011;7630;50.306;8.566;2023-04-06T21:31:32;21.80;;;19.40;;
15061;SDS011;7630;50.306;8.566;2023-04-06T21:35:39;21.83;;;19.63;;
15061;SDS011;7630;50.306;8.566;2023-04-06T21:39:40;23.87;;;21.37;;
15061;SDS011;7630;50.306;8.566;2023-04-06T21:43:42;20.73;;;18.53;;
15061;SDS011;7630;50.306;8.566;2023-04-06T21:47:43;22.30;;;20.10;;
15061;SDS011;7630;50.306;8.566;2023-04-06T21:51:44;22.13;;;19.83;;
15061;SDS011;7630;50.306;8.566;2023-04-06T21:55:45;21.57;;;19.50;;
15061;SDS011;7630;50.306;8.566;2023-04-06T21:59:47;23.87;;;21.60;;
15061;SDS011;7630;50.306;8.566;2023-04-06T22:03:48;23.63;;;21.20;;
15061;SDS011;7630;50.306;8.566;2023-04-06T22:07:50;28.90;;;22.50;;
15061;SDS011;7630;50.306;8.566;2023-04-06T22:11:52;29.07;;;26.17;;
15061;SDS011;7630;50.306;8.566;2023-04-06T22:15:53;40.93;;;33.20;;
15061;SDS011;7630;50.306;8.566;2023-04-06T22:19:54;31.53;;;28.13;;
15061;SDS011;7630;50.306;8.566;2023-04-06T22:23:56;25.00;;;22.53;;
15061;SDS011;7630;50.306;8.566;2023-04-06T22:27:57;32.43;;;27.43;;
15061;SDS011;7630;50.306;8.566;2023-04-06T22:31:58;28.67;;;25.60;;
15061;SDS011;7630;50.306;8.566;2023-04-06T22:36:00;27.47;;;24.77;;
15061;SDS011;7630;50.306;8.566;2023-04-06T22:40:01;25.43;;;22.47;;
15061;SDS011;7630;50.306;8.566;2023-04-06T22:44:03;27.00;;;24.20;;
15061;SDS011;7630;50.306;8.566;2023-04-06T22:48:04;29.33;;;26.20;;
15061;SDS011;7630;50.306;8.566;2023-04-06T22:52:05;28.27;;;25.27;;
15061;SDS011;7630;50.306;8.566;2023-04-06T22:56:06;30.67;;;27.33;;
15061;SDS011;7630;50.306;8.566;2023-04-06T23:00:08;37.57;;;29.67;;
15061;SDS011;7630;50.306;8.566;2023-04-06T23:04:09;30.70;;;27.60;;
15061;SDS011;7630;50.306;8.566;2023-04-06T23:08:11;36.00;;;28.40;;
15061;SDS011;7630;50.306;8.566;2023-04-06T23:12:12;31.70;;;27.60;;
15061;SDS011;7630;50.306;8.566;2023-04-06T23:16:13;31.47;;;28.33;;
15061;SDS011;7630;50.306;8.566;2023-04-06T23:20:14;31.63;;;28.33;;
15061;SDS011;7630;50.306;8.566;2023-04-06T23:24:16;33.87;;;30.20;;
15061;SDS011;7630;50.306;8.566;2023-04-06T23:28:17;36.00;;;31.50;;
15061;SDS011;7630;50.306;8.566;2023-04-06T23:32:18;36.93;;;32.93;;
15061;SDS011;7630;50.306;8.566;2023-04-06T23:36:19;37.17;;;33.10;;
15061;SDS011;7630;50.306;8.566;2023-04-06T23:40:20;39.20;;;34.73;;
15061;SDS011;7630;50.306;8.566;2023-04-06T23:44:23;38.80;;;34.63;;
15061;SDS011;7630;50.306;8.566;2023-04-06T23:48:26;41.40;;;36.77;;
15061;SDS011;7630;50.306;8.566;2023-04-06T23:52:27;35.50;;;32.00;;
15061;SDS011;7630;50.306;8.566;2023-04-06T23:56:29;37.90;;;34.03;;
